ADB weather

Adnan Menderes International Airport
─░zmir, ─░zmir Province, Turkey

Public forecast

Using degrees Celsius for public forecast. Weather courtesy of forecast.io.

Current aviation weather report (METAR) for Adnan Menderes International Airport

Retrieved 2019/11/16 22:20 UTC (18 minutes ago):

LTBJ 162220Z 28001KT CAVOK 12/10 Q1018 NOSIG RMK RWY16 VRB01KT

Aviation forecast (TAF) for Adnan Menderes International Airport

Retrieved 2019/11/16 18:03 UTC (5 hours ago):

TAF LTBJ 161640Z 1618/1718 VRB02KT CAVOK BECMG 1703/1705 SCT045